sensor_id;sensor_type;location;lat;lon;timestamp;P1;durP1;ratioP1;P2;durP2;ratioP2
16133;SDS011;8172;45.018;5.972;2022-12-10T00:04:50;40.93;;;2.73;;
16133;SDS011;8172;45.018;5.972;2022-12-10T00:09:58;15.53;;;2.33;;
16133;SDS011;8172;45.018;5.972;2022-12-10T00:15:06;27.97;;;2.87;;
16133;SDS011;8172;45.018;5.972;2022-12-10T00:20:15;150.10;;;5.93;;
16133;SDS011;8172;45.018;5.972;2022-12-10T00:25:23;142.17;;;5.50;;
16133;SDS011;8172;45.018;5.972;2022-12-10T00:30:30;133.83;;;5.83;;
16133;SDS011;8172;45.018;5.972;2022-12-10T00:35:39;54.23;;;4.33;;
16133;SDS011;8172;45.018;5.972;2022-12-10T00:40:47;43.60;;;3.00;;
16133;SDS011;8172;45.018;5.972;2022-12-10T00:45:54;59.27;;;2.50;;
16133;SDS011;8172;45.018;5.972;2022-12-10T00:56:13;34.23;;;2.50;;
16133;SDS011;8172;45.018;5.972;2022-12-10T01:06:29;14.20;;;1.73;;
16133;SDS011;8172;45.018;5.972;2022-12-10T01:11:39;12.60;;;1.50;;
16133;SDS011;8172;45.018;5.972;2022-12-10T01:16:49;12.20;;;1.77;;
16133;SDS011;8172;45.018;5.972;2022-12-10T01:21:58;12.13;;;1.50;;
16133;SDS011;8172;45.018;5.972;2022-12-10T01:27:05;39.57;;;2.30;;
16133;SDS011;8172;45.018;5.972;2022-12-10T01:32:12;6.07;;;1.40;;
16133;SDS011;8172;45.018;5.972;2022-12-10T01:37:20;24.97;;;1.63;;
16133;SDS011;8172;45.018;5.972;2022-12-10T01:42:28;6.17;;;1.47;;
16133;SDS011;8172;45.018;5.972;2022-12-10T01:47:35;9.00;;;1.60;;
16133;SDS011;8172;45.018;5.972;2022-12-10T01:52:42;8.13;;;1.57;;
16133;SDS011;8172;45.018;5.972;2022-12-10T01:57:50;71.80;;;2.60;;
16133;SDS011;8172;45.018;5.972;2022-12-10T02:02:59;38.80;;;3.13;;
16133;SDS011;8172;45.018;5.972;2022-12-10T02:08:10;46.93;;;2.87;;
16133;SDS011;8172;45.018;5.972;2022-12-10T02:18:35;66.67;;;3.20;;
16133;SDS011;8172;45.018;5.972;2022-12-10T02:23:39;71.33;;;3.00;;
16133;SDS011;8172;45.018;5.972;2022-12-10T02:33:59;11.20;;;1.70;;
16133;SDS011;8172;45.018;5.972;2022-12-10T02:39:11;52.03;;;2.43;;
16133;SDS011;8172;45.018;5.972;2022-12-10T02:44:22;55.23;;;2.77;;
16133;SDS011;8172;45.018;5.972;2022-12-10T02:49:33;40.37;;;2.23;;
16133;SDS011;8172;45.018;5.972;2022-12-10T02:54:43;13.00;;;1.40;;
16133;SDS011;8172;45.018;5.972;2022-12-10T03:10:20;10.67;;;1.50;;
16133;SDS011;8172;45.018;5.972;2022-12-10T03:15:22;6.20;;;1.20;;
16133;SDS011;8172;45.018;5.972;2022-12-10T03:20:32;61.57;;;2.87;;
16133;SDS011;8172;45.018;5.972;2022-12-10T03:25:42;45.90;;;2.30;;
16133;SDS011;8172;45.018;5.972;2022-12-10T03:30:51;23.97;;;1.77;;
16133;SDS011;8172;45.018;5.972;2022-12-10T03:36:00;14.00;;;1.80;;
16133;SDS011;8172;45.018;5.972;2022-12-10T03:41:07;37.10;;;1.97;;
16133;SDS011;8172;45.018;5.972;2022-12-10T03:46:15;4.37;;;1.03;;
16133;SDS011;8172;45.018;5.972;2022-12-10T03:51:22;32.97;;;2.03;;
16133;SDS011;8172;45.018;5.972;2022-12-10T03:56:30;11.17;;;1.03;;
16133;SDS011;8172;45.018;5.972;2022-12-10T04:01:37;30.20;;;1.47;;
16133;SDS011;8172;45.018;5.972;2022-12-10T04:06:44;33.83;;;1.97;;
16133;SDS011;8172;45.018;5.972;2022-12-10T04:11:55;5.03;;;1.10;;
16133;SDS011;8172;45.018;5.972;2022-12-10T04:17:02;9.40;;;1.00;;
16133;SDS011;8172;45.018;5.972;2022-12-10T04:22:09;29.77;;;1.80;;
16133;SDS011;8172;45.018;5.972;2022-12-10T04:27:21;29.90;;;1.77;;
16133;SDS011;8172;45.018;5.972;2022-12-10T04:32:28;103.03;;;4.43;;
16133;SDS011;8172;45.018;5.972;2022-12-10T04:37:36;13.10;;;1.33;;
16133;SDS011;8172;45.018;5.972;2022-12-10T04:42:43;121.70;;;5.57;;
16133;SDS011;8172;45.018;5.972;2022-12-10T04:47:50;132.03;;;5.23;;
16133;SDS011;8172;45.018;5.972;2022-12-10T04:52:58;167.10;;;5.93;;
16133;SDS011;8172;45.018;5.972;2022-12-10T04:58:06;72.80;;;3.13;;
16133;SDS011;8172;45.018;5.972;2022-12-10T05:03:13;19.87;;;1.67;;
16133;SDS011;8172;45.018;5.972;2022-12-10T05:08:20;10.30;;;1.30;;
16133;SDS011;8172;45.018;5.972;2022-12-10T05:13:28;0.70;;;0.70;;
16133;SDS011;8172;45.018;5.972;2022-12-10T05:18:36;30.80;;;1.87;;
16133;SDS011;8172;45.018;5.972;2022-12-10T05:23:46;64.93;;;3.23;;
16133;SDS011;8172;45.018;5.972;2022-12-10T05:28:55;26.20;;;2.00;;
16133;SDS011;8172;45.018;5.972;2022-12-10T05:34:02;87.00;;;3.40;;
16133;SDS011;8172;45.018;5.972;2022-12-10T05:39:10;72.07;;;3.10;;
16133;SDS011;8172;45.018;5.972;2022-12-10T05:44:18;49.80;;;2.27;;
16133;SDS011;8172;45.018;5.972;2022-12-10T05:49:25;33.70;;;2.00;;
16133;SDS011;8172;45.018;5.972;2022-12-10T05:54:34;33.20;;;2.23;;
16133;SDS011;8172;45.018;5.972;2022-12-10T05:59:42;78.07;;;3.90;;
16133;SDS011;8172;45.018;5.972;2022-12-10T06:04:52;52.23;;;3.67;;
16133;SDS011;8172;45.018;5.972;2022-12-10T06:09:59;67.60;;;2.70;;
16133;SDS011;8172;45.018;5.972;2022-12-10T06:15:07;32.27;;;2.10;;
16133;SDS011;8172;45.018;5.972;2022-12-10T06:25:39;19.03;;;1.80;;
16133;SDS011;8172;45.018;5.972;2022-12-10T06:30:48;28.73;;;2.00;;
16133;SDS011;8172;45.018;5.972;2022-12-10T06:35:55;22.27;;;2.07;;
16133;SDS011;8172;45.018;5.972;2022-12-10T06:41:04;54.67;;;2.97;;
16133;SDS011;8172;45.018;5.972;2022-12-10T06:46:14;86.87;;;4.20;;
16133;SDS011;8172;45.018;5.972;2022-12-10T06:51:25;69.80;;;4.00;;
16133;SDS011;8172;45.018;5.972;2022-12-10T06:56:32;71.20;;;3.27;;
16133;SDS011;8172;45.018;5.972;2022-12-10T07:01:40;98.83;;;4.10;;
16133;SDS011;8172;45.018;5.972;2022-12-10T07:06:48;76.43;;;3.50;;
16133;SDS011;8172;45.018;5.972;2022-12-10T07:11:55;54.87;;;3.30;;
16133;SDS011;8172;45.018;5.972;2022-12-10T07:17:02;50.00;;;3.13;;
16133;SDS011;8172;45.018;5.972;2022-12-10T07:22:10;67.93;;;2.93;;
16133;SDS011;8172;45.018;5.972;2022-12-10T07:27:18;53.93;;;2.87;;
16133;SDS011;8172;45.018;5.972;2022-12-10T07:32:26;49.37;;;2.60;;
16133;SDS011;8172;45.018;5.972;2022-12-10T07:37:33;47.87;;;2.80;;
16133;SDS011;8172;45.018;5.972;2022-12-10T07:42:40;135.93;;;5.00;;
16133;SDS011;8172;45.018;5.972;2022-12-10T07:47:47;141.87;;;5.20;;
16133;SDS011;8172;45.018;5.972;2022-12-10T07:52:55;192.53;;;8.70;;
16133;SDS011;8172;45.018;5.972;2022-12-10T07:58:02;118.30;;;5.00;;
16133;SDS011;8172;45.018;5.972;2022-12-10T08:03:10;93.53;;;4.97;;
16133;SDS011;8172;45.018;5.972;2022-12-10T08:08:17;77.77;;;3.93;;
16133;SDS011;8172;45.018;5.972;2022-12-10T08:13:24;120.47;;;6.00;;
16133;SDS011;8172;45.018;5.972;2022-12-10T08:18:32;85.10;;;5.00;;
16133;SDS011;8172;45.018;5.972;2022-12-10T08:23:40;75.33;;;3.87;;
16133;SDS011;8172;45.018;5.972;2022-12-10T08:28:48;29.77;;;2.27;;
16133;SDS011;8172;45.018;5.972;2022-12-10T08:33:56;121.13;;;5.73;;
16133;SDS011;8172;45.018;5.972;2022-12-10T08:39:03;189.37;;;7.73;;
16133;SDS011;8172;45.018;5.972;2022-12-10T08:44:10;129.93;;;6.43;;
16133;SDS011;8172;45.018;5.972;2022-12-10T08:49:17;239.53;;;8.63;;
16133;SDS011;8172;45.018;5.972;2022-12-10T08:54:24;63.87;;;3.10;;
16133;SDS011;8172;45.018;5.972;2022-12-10T08:59:32;206.27;;;8.23;;
16133;SDS011;8172;45.018;5.972;2022-12-10T09:04:39;98.70;;;4.40;;
16133;SDS011;8172;45.018;5.972;2022-12-10T09:09:48;231.77;;;11.23;;
16133;SDS011;8172;45.018;5.972;2022-12-10T09:14:54;228.80;;;8.53;;
16133;SDS011;8172;45.018;5.972;2022-12-10T09:20:02;43.93;;;3.03;;
16133;SDS011;8172;45.018;5.972;2022-12-10T09:25:10;151.53;;;6.53;;
16133;SDS011;8172;45.018;5.972;2022-12-10T09:30:19;31.60;;;2.03;;
16133;SDS011;8172;45.018;5.972;2022-12-10T09:35:26;17.90;;;2.17;;
16133;SDS011;8172;45.018;5.972;2022-12-10T09:51:01;105.13;;;4.10;;
16133;SDS011;8172;45.018;5.972;2022-12-10T09:56:04;140.40;;;5.43;;
16133;SDS011;8172;45.018;5.972;2022-12-10T10:01:14;100.93;;;4.93;;
16133;SDS011;8172;45.018;5.972;2022-12-10T10:06:24;279.70;;;11.50;;
16133;SDS011;8172;45.018;5.972;2022-12-10T10:11:45;60.60;;;3.00;;
16133;SDS011;8172;45.018;5.972;2022-12-10T10:16:55;103.00;;;4.90;;
16133;SDS011;8172;45.018;5.972;2022-12-10T10:22:04;133.27;;;6.07;;
16133;SDS011;8172;45.018;5.972;2022-12-10T10:32:25;216.50;;;8.73;;
16133;SDS011;8172;45.018;5.972;2022-12-10T10:42:41;6.73;;;1.30;;
16133;SDS011;8172;45.018;5.972;2022-12-10T10:47:50;19.80;;;1.90;;
16133;SDS011;8172;45.018;5.972;2022-12-10T10:53:00;74.73;;;4.33;;
16133;SDS011;8172;45.018;5.972;2022-12-10T10:58:13;52.97;;;3.63;;
16133;SDS011;8172;45.018;5.972;2022-12-10T11:03:17;337.33;;;12.70;;
16133;SDS011;8172;45.018;5.972;2022-12-10T11:08:25;154.20;;;6.10;;
16133;SDS011;8172;45.018;5.972;2022-12-10T11:13:34;129.97;;;5.77;;
16133;SDS011;8172;45.018;5.972;2022-12-10T11:19:01;25.60;;;2.50;;
16133;SDS011;8172;45.018;5.972;2022-12-10T11:23:53;373.57;;;14.87;;
16133;SDS011;8172;45.018;5.972;2022-12-10T12:20:53;2.33;;;1.70;;
16133;SDS011;8172;45.018;5.972;2022-12-10T12:26:00;1.80;;;1.50;;
16133;SDS011;8172;45.018;5.972;2022-12-10T12:31:09;1.83;;;1.70;;
16133;SDS011;8172;45.018;5.972;2022-12-10T12:36:20;1.90;;;1.70;;
16133;SDS011;8172;45.018;5.972;2022-12-10T12:41:36;1.97;;;1.70;;
16133;SDS011;8172;45.018;5.972;2022-12-10T12:46:40;2.30;;;2.10;;
16133;SDS011;8172;45.018;5.972;2022-12-10T12:51:51;1.80;;;1.67;;
16133;SDS011;8172;45.018;5.972;2022-12-10T13:03:18;2.20;;;2.00;;
16133;SDS011;8172;45.018;5.972;2022-12-10T13:17:34;2.57;;;2.30;;
16133;SDS011;8172;45.018;5.972;2022-12-10T13:22:43;3.10;;;2.40;;
16133;SDS011;8172;45.018;5.972;2022-12-10T13:33:20;360.43;;;13.57;;
16133;SDS011;8172;45.018;5.972;2022-12-10T13:48:31;238.97;;;10.83;;
16133;SDS011;8172;45.018;5.972;2022-12-10T13:53:44;28.87;;;4.90;;
16133;SDS011;8172;45.018;5.972;2022-12-10T14:14:22;50.80;;;6.40;;
16133;SDS011;8172;45.018;5.972;2022-12-10T14:19:26;27.40;;;5.53;;
16133;SDS011;8172;45.018;5.972;2022-12-10T14:24:36;29.57;;;5.90;;
16133;SDS011;8172;45.018;5.972;2022-12-10T14:29:46;97.73;;;8.27;;
16133;SDS011;8172;45.018;5.972;2022-12-10T14:34:56;50.37;;;6.80;;
16133;SDS011;8172;45.018;5.972;2022-12-10T14:40:08;9.13;;;5.40;;
16133;SDS011;8172;45.018;5.972;2022-12-10T14:45:16;11.07;;;5.50;;
16133;SDS011;8172;45.018;5.972;2022-12-10T14:50:24;122.77;;;9.70;;
16133;SDS011;8172;45.018;5.972;2022-12-10T14:55:34;16.50;;;5.77;;
16133;SDS011;8172;45.018;5.972;2022-12-10T15:00:42;37.13;;;6.80;;
16133;SDS011;8172;45.018;5.972;2022-12-10T15:11:00;16.10;;;6.50;;
16133;SDS011;8172;45.018;5.972;2022-12-10T15:21:22;123.37;;;11.47;;
16133;SDS011;8172;45.018;5.972;2022-12-10T15:26:32;427.83;;;19.07;;
16133;SDS011;8172;45.018;5.972;2022-12-10T15:31:40;359.97;;;16.70;;
16133;SDS011;8172;45.018;5.972;2022-12-10T15:36:49;158.77;;;10.97;;
16133;SDS011;8172;45.018;5.972;2022-12-10T15:41:59;72.70;;;7.33;;
16133;SDS011;8172;45.018;5.972;2022-12-10T15:52:23;9.40;;;4.97;;
16133;SDS011;8172;45.018;5.972;2022-12-10T15:57:31;13.23;;;5.43;;
16133;SDS011;8172;45.018;5.972;2022-12-10T16:07:51;116.07;;;8.20;;
16133;SDS011;8172;45.018;5.972;2022-12-10T16:13:03;101.87;;;8.77;;
16133;SDS011;8172;45.018;5.972;2022-12-10T16:18:11;132.80;;;9.60;;
16133;SDS011;8172;45.018;5.972;2022-12-10T16:23:18;34.83;;;7.90;;
16133;SDS011;8172;45.018;5.972;2022-12-10T16:28:25;129.93;;;10.63;;
16133;SDS011;8172;45.018;5.972;2022-12-10T16:33:32;85.27;;;8.77;;
16133;SDS011;8172;45.018;5.972;2022-12-10T16:38:39;176.97;;;9.70;;
16133;SDS011;8172;45.018;5.972;2022-12-10T16:43:46;283.17;;;15.97;;
16133;SDS011;8172;45.018;5.972;2022-12-10T16:48:53;82.47;;;8.60;;
16133;SDS011;8172;45.018;5.972;2022-12-10T16:54:00;262.23;;;13.80;;
16133;SDS011;8172;45.018;5.972;2022-12-10T16:59:08;57.17;;;7.40;;
16133;SDS011;8172;45.018;5.972;2022-12-10T17:04:15;40.10;;;7.87;;
16133;SDS011;8172;45.018;5.972;2022-12-10T17:09:22;34.30;;;6.97;;
16133;SDS011;8172;45.018;5.972;2022-12-10T17:14:32;144.47;;;10.17;;
16133;SDS011;8172;45.018;5.972;2022-12-10T17:19:39;174.90;;;11.97;;
16133;SDS011;8172;45.018;5.972;2022-12-10T17:24:47;96.57;;;10.07;;
16133;SDS011;8172;45.018;5.972;2022-12-10T17:29:54;147.17;;;11.37;;
16133;SDS011;8172;45.018;5.972;2022-12-10T17:35:02;163.17;;;10.57;;
16133;SDS011;8172;45.018;5.972;2022-12-10T17:45:19;117.70;;;9.40;;
16133;SDS011;8172;45.018;5.972;2022-12-10T17:50:28;212.53;;;12.53;;
16133;SDS011;8172;45.018;5.972;2022-12-10T17:55:38;341.00;;;16.37;;
16133;SDS011;8172;45.018;5.972;2022-12-10T18:00:48;12.83;;;6.37;;
16133;SDS011;8172;45.018;5.972;2022-12-10T18:05:56;56.80;;;8.07;;
16133;SDS011;8172;45.018;5.972;2022-12-10T18:11:03;23.37;;;6.93;;
16133;SDS011;8172;45.018;5.972;2022-12-10T18:16:12;21.23;;;7.13;;
16133;SDS011;8172;45.018;5.972;2022-12-10T18:21:20;8.80;;;6.33;;
16133;SDS011;8172;45.018;5.972;2022-12-10T18:26:27;9.37;;;6.10;;
16133;SDS011;8172;45.018;5.972;2022-12-10T18:31:35;9.37;;;6.43;;
16133;SDS011;8172;45.018;5.972;2022-12-10T18:36:43;9.17;;;6.67;;
16133;SDS011;8172;45.018;5.972;2022-12-10T18:41:52;13.13;;;6.67;;
16133;SDS011;8172;45.018;5.972;2022-12-10T18:46:59;10.10;;;6.77;;
16133;SDS011;8172;45.018;5.972;2022-12-10T18:52:06;9.97;;;6.53;;
16133;SDS011;8172;45.018;5.972;2022-12-10T18:57:14;9.13;;;6.37;;
16133;SDS011;8172;45.018;5.972;2022-12-10T19:02:23;12.63;;;6.23;;
16133;SDS011;8172;45.018;5.972;2022-12-10T19:07:31;17.80;;;6.70;;
16133;SDS011;8172;45.018;5.972;2022-12-10T19:12:38;9.57;;;6.40;;
16133;SDS011;8172;45.018;5.972;2022-12-10T19:17:46;9.37;;;6.47;;
16133;SDS011;8172;45.018;5.972;2022-12-10T19:22:54;10.90;;;6.37;;
16133;SDS011;8172;45.018;5.972;2022-12-10T19:28:01;146.03;;;11.47;;
16133;SDS011;8172;45.018;5.972;2022-12-10T19:33:08;8.33;;;5.97;;
16133;SDS011;8172;45.018;5.972;2022-12-10T19:38:15;8.77;;;5.77;;
16133;SDS011;8172;45.018;5.972;2022-12-10T19:43:24;22.77;;;6.27;;
16133;SDS011;8172;45.018;5.972;2022-12-10T19:48:32;8.83;;;5.70;;
16133;SDS011;8172;45.018;5.972;2022-12-10T19:53:39;10.87;;;6.10;;
16133;SDS011;8172;45.018;5.972;2022-12-10T19:58:51;10.90;;;6.70;;
16133;SDS011;8172;45.018;5.972;2022-12-10T20:04:00;9.53;;;6.27;;
16133;SDS011;8172;45.018;5.972;2022-12-10T20:14:18;11.50;;;6.57;;
16133;SDS011;8172;45.018;5.972;2022-12-10T20:19:26;10.97;;;7.13;;
16133;SDS011;8172;45.018;5.972;2022-12-10T20:24:33;9.70;;;6.70;;
16133;SDS011;8172;45.018;5.972;2022-12-10T20:29:41;11.70;;;7.03;;
16133;SDS011;8172;45.018;5.972;2022-12-10T20:34:48;9.17;;;6.50;;
16133;SDS011;8172;45.018;5.972;2022-12-10T20:39:55;9.23;;;6.37;;
16133;SDS011;8172;45.018;5.972;2022-12-10T20:45:03;8.67;;;5.97;;
16133;SDS011;8172;45.018;5.972;2022-12-10T20:50:13;9.70;;;6.60;;
16133;SDS011;8172;45.018;5.972;2022-12-10T20:55:21;10.33;;;6.07;;
16133;SDS011;8172;45.018;5.972;2022-12-10T21:00:28;9.53;;;5.87;;
16133;SDS011;8172;45.018;5.972;2022-12-10T21:05:35;9.50;;;6.27;;
16133;SDS011;8172;45.018;5.972;2022-12-10T21:10:42;8.50;;;6.17;;
16133;SDS011;8172;45.018;5.972;2022-12-10T21:15:52;8.83;;;6.13;;
16133;SDS011;8172;45.018;5.972;2022-12-10T21:21:02;8.63;;;5.77;;
16133;SDS011;8172;45.018;5.972;2022-12-10T21:26:10;8.30;;;5.90;;
16133;SDS011;8172;45.018;5.972;2022-12-10T21:31:21;9.00;;;6.23;;
16133;SDS011;8172;45.018;5.972;2022-12-10T21:36:30;8.27;;;6.17;;
16133;SDS011;8172;45.018;5.972;2022-12-10T21:41:39;9.37;;;5.97;;
16133;SDS011;8172;45.018;5.972;2022-12-10T21:46:48;7.63;;;5.60;;
16133;SDS011;8172;45.018;5.972;2022-12-10T21:51:55;7.87;;;5.50;;
16133;SDS011;8172;45.018;5.972;2022-12-10T21:57:03;8.27;;;5.27;;
16133;SDS011;8172;45.018;5.972;2022-12-10T22:02:10;7.33;;;4.93;;
16133;SDS011;8172;45.018;5.972;2022-12-10T22:07:17;8.00;;;5.57;;
16133;SDS011;8172;45.018;5.972;2022-12-10T22:12:25;7.50;;;5.30;;
16133;SDS011;8172;45.018;5.972;2022-12-10T22:17:32;7.50;;;5.37;;
16133;SDS011;8172;45.018;5.972;2022-12-10T22:22:39;9.03;;;6.27;;
16133;SDS011;8172;45.018;5.972;2022-12-10T22:27:46;8.80;;;5.93;;
16133;SDS011;8172;45.018;5.972;2022-12-10T22:32:54;9.40;;;5.70;;
16133;SDS011;8172;45.018;5.972;2022-12-10T22:38:01;7.97;;;5.40;;
16133;SDS011;8172;45.018;5.972;2022-12-10T22:43:09;7.83;;;5.57;;
16133;SDS011;8172;45.018;5.972;2022-12-10T22:48:18;14.03;;;5.97;;
16133;SDS011;8172;45.018;5.972;2022-12-10T22:53:25;9.17;;;6.17;;
16133;SDS011;8172;45.018;5.972;2022-12-10T22:58:33;10.30;;;6.10;;
16133;SDS011;8172;45.018;5.972;2022-12-10T23:03:40;33.07;;;6.47;;
16133;SDS011;8172;45.018;5.972;2022-12-10T23:08:47;17.87;;;6.60;;
16133;SDS011;8172;45.018;5.972;2022-12-10T23:13:54;9.30;;;6.37;;
16133;SDS011;8172;45.018;5.972;2022-12-10T23:19:01;8.67;;;5.97;;
16133;SDS011;8172;45.018;5.972;2022-12-10T23:24:08;16.67;;;7.07;;
16133;SDS011;8172;45.018;5.972;2022-12-10T23:29:15;8.47;;;5.83;;
16133;SDS011;8172;45.018;5.972;2022-12-10T23:34:24;22.07;;;6.43;;
16133;SDS011;8172;45.018;5.972;2022-12-10T23:39:31;10.43;;;6.27;;
16133;SDS011;8172;45.018;5.972;2022-12-10T23:44:37;9.27;;;6.13;;
16133;SDS011;8172;45.018;5.972;2022-12-10T23:49:44;33.73;;;6.50;;
16133;SDS011;8172;45.018;5.972;2022-12-10T23:54:52;22.63;;;6.20;;
16133;SDS011;8172;45.018;5.972;2022-12-10T23:59:58;33.97;;;7.93;;
